createdAt,value
2022-12-08T00:00:28.354Z,12.40
2022-12-08T00:03:14.486Z,13.52
2022-12-08T00:06:22.172Z,12.60
2022-12-08T00:09:22.123Z,12.82
2022-12-08T00:12:12.091Z,13.32
2022-12-08T00:14:57.548Z,13.67
2022-12-08T00:17:47.074Z,12.77
2022-12-08T00:20:32.364Z,13.25
2022-12-08T00:23:19.136Z,12.80
2022-12-08T00:26:05.306Z,13.25
2022-12-08T00:28:50.700Z,12.87
2022-12-08T00:31:36.743Z,13.43
2022-12-08T00:34:22.419Z,13.75
2022-12-08T00:37:12.358Z,14.30
2022-12-08T00:39:59.301Z,14.02
2022-12-08T00:42:44.787Z,13.60
2022-12-08T00:45:30.134Z,15.10
2022-12-08T00:48:15.459Z,14.35
2022-12-08T00:51:00.768Z,14.30
2022-12-08T00:53:47.441Z,14.57
2022-12-08T00:56:35.029Z,16.17
2022-12-08T00:59:20.531Z,14.32
2022-12-08T01:02:05.837Z,14.40
2022-12-08T01:04:51.428Z,14.50
2022-12-08T01:07:37.252Z,15.18
2022-12-08T01:10:22.928Z,14.03
2022-12-08T01:13:21.808Z,15.77
2022-12-08T01:16:07.604Z,14.98
2022-12-08T01:19:09.939Z,15.57
2022-12-08T01:21:55.413Z,15.07
2022-12-08T01:27:40.361Z,13.63
2022-12-08T01:30:27.454Z,15.43
2022-12-08T01:33:13.163Z,13.77
2022-12-08T01:36:03.233Z,13.95
2022-12-08T01:38:48.823Z,13.80
2022-12-08T01:41:36.447Z,13.95
2022-12-08T01:44:53.711Z,13.80
2022-12-08T01:47:44.160Z,14.30
2022-12-08T01:50:31.933Z,12.50
2022-12-08T01:53:23.257Z,12.90
2022-12-08T01:56:11.626Z,12.88
2022-12-08T01:58:57.837Z,12.52
2022-12-08T02:01:45.179Z,11.25
2022-12-08T02:04:32.126Z,12.35
2022-12-08T02:07:18.695Z,12.15
2022-12-08T02:10:05.489Z,12.73
2022-12-08T02:12:56.302Z,11.63
2022-12-08T02:15:52.904Z,10.43
2022-12-08T02:19:22.511Z,12.13
2022-12-08T02:22:11.814Z,11.23
2022-12-08T02:25:03.642Z,11.80
2022-12-08T02:28:03.406Z,10.93
2022-12-08T02:31:02.692Z,11.18
2022-12-08T02:34:12.798Z,11.70
2022-12-08T02:37:07.120Z,11.97
2022-12-08T02:40:00.784Z,11.52
2022-12-08T02:42:52.191Z,12.38
2022-12-08T02:45:44.583Z,12.25
2022-12-08T02:48:32.696Z,11.70
2022-12-08T02:51:19.662Z,10.90
2022-12-08T02:54:05.437Z,11.65
2022-12-08T02:57:23.814Z,11.88
2022-12-08T03:00:13.485Z,12.20
2022-12-08T03:03:09.540Z,11.52
2022-12-08T03:06:07.026Z,11.33
2022-12-08T03:08:57.886Z,11.48
2022-12-08T03:11:48.849Z,11.63
2022-12-08T03:14:36.571Z,12.15
2022-12-08T03:17:26.255Z,11.30
2022-12-08T03:20:16.262Z,11.60
2022-12-08T03:23:05.509Z,11.50
2022-12-08T03:26:01.930Z,11.48
2022-12-08T03:28:47.352Z,12.40
2022-12-08T03:31:38.340Z,11.80
2022-12-08T03:34:28.203Z,11.82
2022-12-08T03:37:15.446Z,11.85
2022-12-08T03:40:01.304Z,12.80
2022-12-08T03:42:48.456Z,12.27
2022-12-08T03:45:34.365Z,12.55
2022-12-08T03:48:20.064Z,11.97
2022-12-08T03:51:05.578Z,12.23
2022-12-08T03:53:51.245Z,12.38
2022-12-08T03:56:38.711Z,11.88
2022-12-08T03:59:26.348Z,12.23
2022-12-08T04:02:11.894Z,11.95
2022-12-08T04:04:58.975Z,12.02
2022-12-08T04:07:44.743Z,11.63
2022-12-08T04:10:30.001Z,11.95
2022-12-08T04:13:15.436Z,11.30
2022-12-08T04:16:02.926Z,12.50
2022-12-08T04:18:48.563Z,11.88
2022-12-08T04:21:34.224Z,12.18
2022-12-08T04:24:19.884Z,12.23
2022-12-08T04:27:05.640Z,11.27
2022-12-08T04:29:51.479Z,13.03
2022-12-08T04:32:41.720Z,12.45
2022-12-08T04:35:31.127Z,12.75
2022-12-08T04:38:17.550Z,12.40
2022-12-08T04:41:04.731Z,12.98
2022-12-08T04:43:50.257Z,12.33
2022-12-08T04:46:40.209Z,12.27
2022-12-08T04:49:30.383Z,12.10
2022-12-08T04:52:15.645Z,12.48
2022-12-08T04:55:10.547Z,12.68
2022-12-08T04:57:56.082Z,12.67
2022-12-08T05:00:42.068Z,11.75
2022-12-08T05:03:39.637Z,11.52
2022-12-08T05:06:26.392Z,12.27
2022-12-08T05:09:16.876Z,12.02
2022-12-08T05:12:04.623Z,11.63
2022-12-08T05:14:50.235Z,10.93
2022-12-08T05:17:35.572Z,10.63
2022-12-08T05:20:20.825Z,11.93
2022-12-08T05:23:07.619Z,11.35
2022-12-08T05:25:52.986Z,11.80
2022-12-08T05:28:43.009Z,12.43
2022-12-08T05:31:29.215Z,13.30
2022-12-08T05:34:14.864Z,13.18
2022-12-08T05:37:00.696Z,12.93
2022-12-08T05:39:48.098Z,13.97
2022-12-08T05:42:33.818Z,14.85
2022-12-08T05:45:21.608Z,13.90
2022-12-08T05:48:08.104Z,13.75
2022-12-08T05:50:53.988Z,13.48
2022-12-08T05:53:40.318Z,14.15
2022-12-08T05:56:28.224Z,13.57
2022-12-08T05:59:16.925Z,13.38
2022-12-08T06:02:02.480Z,14.95
2022-12-08T06:04:48.070Z,15.40
2022-12-08T06:07:33.386Z,15.90
2022-12-08T06:10:18.796Z,17.73
2022-12-08T06:13:07.175Z,18.77
2022-12-08T06:15:52.586Z,18.67
2022-12-08T06:18:37.892Z,18.77
2022-12-08T06:21:23.890Z,20.60
2022-12-08T06:24:09.419Z,21.70
2022-12-08T06:27:01.009Z,20.27
2022-12-08T06:29:47.695Z,21.00
2022-12-08T06:32:33.177Z,20.52
2022-12-08T06:35:18.952Z,20.13
2022-12-08T06:38:05.528Z,18.92
2022-12-08T06:40:58.577Z,18.45
2022-12-08T06:43:44.884Z,17.70
2022-12-08T06:46:31.691Z,18.35
2022-12-08T06:49:17.378Z,15.83
2022-12-08T06:52:02.733Z,16.85
2022-12-08T06:54:47.817Z,18.33
2022-12-08T06:57:34.611Z,17.33
2022-12-08T07:00:20.339Z,17.77
2022-12-08T07:03:15.710Z,17.93
2022-12-08T07:06:07.474Z,17.08
2022-12-08T07:08:56.121Z,18.02
2022-12-08T07:11:41.758Z,16.77
2022-12-08T07:14:27.294Z,15.88
2022-12-08T07:17:12.537Z,16.23
2022-12-08T07:19:59.725Z,16.90
2022-12-08T07:26:02.095Z,15.90
2022-12-08T07:28:48.016Z,14.95
2022-12-08T07:31:40.495Z,15.53
2022-12-08T07:34:28.183Z,15.45
2022-12-08T07:37:15.783Z,13.90
2022-12-08T07:40:03.846Z,15.45
2022-12-08T07:42:51.563Z,15.00
2022-12-08T07:45:36.941Z,14.23
2022-12-08T07:48:22.669Z,15.45
2022-12-08T07:51:09.193Z,15.73
2022-12-08T07:53:56.155Z,15.70
2022-12-08T07:56:47.499Z,15.63
2022-12-08T07:59:33.709Z,16.17
2022-12-08T08:02:24.901Z,14.90
2022-12-08T08:05:14.887Z,17.27
2022-12-08T08:08:06.428Z,19.08
2022-12-08T08:11:18.990Z,18.90
2022-12-08T08:14:15.904Z,17.90
2022-12-08T08:17:11.176Z,17.85
2022-12-08T08:19:56.979Z,17.98
2022-12-08T08:22:45.464Z,18.27
2022-12-08T08:25:31.137Z,18.42
2022-12-08T08:28:18.650Z,19.30
2022-12-08T08:31:05.669Z,18.10
2022-12-08T08:33:51.329Z,19.50
2022-12-08T08:36:39.452Z,18.90
2022-12-08T08:39:33.223Z,19.27
2022-12-08T08:42:19.322Z,19.08
2022-12-08T08:45:09.108Z,19.73
2022-12-08T08:50:55.166Z,18.25
2022-12-08T08:53:41.121Z,18.13
2022-12-08T08:56:27.626Z,17.90
2022-12-08T08:59:13.385Z,17.77
2022-12-08T09:02:00.495Z,17.17
2022-12-08T09:04:46.618Z,16.48
2022-12-08T09:07:41.428Z,16.10
2022-12-08T09:10:27.608Z,15.90
2022-12-08T09:13:13.538Z,15.30
2022-12-08T09:16:01.305Z,15.82
2022-12-08T09:18:49.700Z,15.80
2022-12-08T09:21:35.800Z,15.00
2022-12-08T09:24:21.392Z,14.97
2022-12-08T09:27:07.004Z,15.43
2022-12-08T09:29:52.698Z,14.60
2022-12-08T09:32:39.470Z,14.15
2022-12-08T09:35:26.623Z,13.45
2022-12-08T09:38:12.413Z,13.77
2022-12-08T09:40:59.497Z,13.52
2022-12-08T09:43:59.721Z,13.05
2022-12-08T09:46:47.903Z,12.50
2022-12-08T09:49:39.333Z,12.80
2022-12-08T09:52:30.223Z,12.73
2022-12-08T09:55:23.841Z,12.48
2022-12-08T09:58:36.154Z,13.35
2022-12-08T10:01:23.269Z,12.77
2022-12-08T10:04:18.598Z,12.73
2022-12-08T10:07:12.686Z,12.70
2022-12-08T10:10:05.648Z,12.15
2022-12-08T10:12:55.325Z,13.02
2022-12-08T10:15:47.270Z,12.48
2022-12-08T10:18:34.325Z,12.98
2022-12-08T10:21:23.038Z,11.85
2022-12-08T10:24:16.441Z,12.73
2022-12-08T10:27:04.186Z,11.23
2022-12-08T10:30:28.252Z,11.55
2022-12-08T10:33:17.526Z,12.05
2022-12-08T10:36:04.947Z,12.27
2022-12-08T10:38:50.805Z,11.13
2022-12-08T10:41:36.176Z,12.18
2022-12-08T10:44:24.176Z,12.05
2022-12-08T10:47:12.573Z,11.90
2022-12-08T10:50:49.364Z,11.40
2022-12-08T10:53:46.094Z,10.48
2022-12-08T10:56:32.834Z,12.25
2022-12-08T10:59:19.472Z,10.45
2022-12-08T11:02:19.863Z,12.43
2022-12-08T11:05:06.843Z,12.30
2022-12-08T11:07:55.307Z,11.88
2022-12-08T11:10:44.686Z,12.15
2022-12-08T11:13:30.715Z,12.00
2022-12-08T11:16:19.808Z,11.68
2022-12-08T11:19:06.923Z,11.30
2022-12-08T11:21:52.283Z,12.27
2022-12-08T11:24:38.056Z,12.13
2022-12-08T11:27:23.713Z,12.20
2022-12-08T11:30:16.143Z,12.52
2022-12-08T11:33:30.389Z,12.95
2022-12-08T11:36:17.521Z,12.02
2022-12-08T11:39:05.841Z,12.32
2022-12-08T11:41:54.665Z,12.32
2022-12-08T11:44:45.257Z,11.63
2022-12-08T11:47:34.690Z,12.63
2022-12-08T11:50:24.582Z,13.13
2022-12-08T11:53:21.087Z,11.77
2022-12-08T11:56:13.567Z,12.90
2022-12-08T11:59:01.931Z,12.57
2022-12-08T12:01:47.412Z,12.07
2022-12-08T12:04:37.522Z,12.88
2022-12-08T12:07:58.230Z,12.18
2022-12-08T12:11:06.027Z,11.90
2022-12-08T12:14:03.052Z,12.18
2022-12-08T12:16:58.900Z,12.73
2022-12-08T12:19:46.085Z,12.38
2022-12-08T12:22:36.011Z,12.32
2022-12-08T12:25:24.159Z,12.85
2022-12-08T12:28:13.574Z,13.02
2022-12-08T12:31:03.188Z,12.25
2022-12-08T12:33:49.912Z,12.02
2022-12-08T12:36:49.273Z,12.52
2022-12-08T12:39:48.077Z,12.50
2022-12-08T12:42:41.369Z,13.25
2022-12-08T12:45:31.315Z,12.83
2022-12-08T12:48:23.274Z,13.90
2022-12-08T12:51:36.581Z,13.57
2022-12-08T12:54:23.707Z,13.65
2022-12-08T12:57:20.941Z,13.50
2022-12-08T13:00:10.299Z,13.63
2022-12-08T13:02:58.641Z,14.25
2022-12-08T13:05:50.313Z,15.05
2022-12-08T13:08:35.838Z,14.82
2022-12-08T13:11:22.418Z,14.32
2022-12-08T13:14:30.142Z,14.17
2022-12-08T13:17:25.977Z,14.05
2022-12-08T13:20:20.775Z,13.88
2022-12-08T13:23:29.963Z,13.15
2022-12-08T13:26:19.630Z,13.98
2022-12-08T13:29:17.642Z,14.03
2022-12-08T13:32:04.075Z,13.52
2022-12-08T13:34:53.384Z,13.95
2022-12-08T13:37:54.279Z,14.20
2022-12-08T13:40:43.346Z,13.75
2022-12-08T13:43:47.372Z,13.83
2022-12-08T13:57:01.013Z,14.50
2022-12-08T13:59:30.381Z,15.57
2022-12-08T14:02:20.648Z,15.60
2022-12-08T14:05:18.229Z,20.55
2022-12-08T14:08:25.144Z,20.60
2022-12-08T14:11:33.643Z,22.35
2022-12-08T14:14:46.277Z,24.08
2022-12-08T14:17:29.124Z,24.00
2022-12-08T14:20:23.490Z,25.52
2022-12-08T14:23:10.240Z,23.55
2022-12-08T14:25:56.714Z,25.73
2022-12-08T14:28:45.225Z,23.73
2022-12-08T14:31:31.173Z,24.13
2022-12-08T14:34:16.772Z,22.35
2022-12-08T14:37:02.446Z,21.92
2022-12-08T14:39:49.939Z,21.83
2022-12-08T14:42:43.902Z,22.03
2022-12-08T14:45:29.736Z,23.40
2022-12-08T14:48:23.438Z,24.45
2022-12-08T14:51:16.625Z,23.77
2022-12-08T14:54:06.659Z,22.95
2022-12-08T14:56:56.438Z,22.87
2022-12-08T14:59:43.556Z,22.08
2022-12-08T15:02:32.165Z,22.38
2022-12-08T15:05:20.823Z,21.40
2022-12-08T15:08:09.831Z,22.13
2022-12-08T15:11:27.523Z,21.67
2022-12-08T15:14:30.797Z,21.75
2022-12-08T15:17:31.657Z,21.08
2022-12-08T15:20:35.081Z,20.55
2022-12-08T15:23:25.724Z,20.73
2022-12-08T15:26:20.579Z,19.55
2022-12-08T15:29:11.804Z,19.90
2022-12-08T15:32:01.199Z,20.45
2022-12-08T15:34:47.099Z,20.00
2022-12-08T15:37:32.398Z,19.88
2022-12-08T15:40:20.834Z,19.83
2022-12-08T15:43:09.907Z,19.95
2022-12-08T15:45:59.848Z,18.73
2022-12-08T15:48:47.375Z,19.80
2022-12-08T15:51:36.579Z,19.02
2022-12-08T15:54:22.094Z,18.17
2022-12-08T15:57:20.464Z,18.45
2022-12-08T16:00:51.259Z,19.25
2022-12-08T16:09:45.754Z,17.80
2022-12-08T16:16:00.501Z,20.00
2022-12-08T16:18:48.087Z,19.35
2022-12-08T16:24:41.584Z,20.50
2022-12-08T16:27:59.914Z,19.80
2022-12-08T16:30:34.929Z,21.50
2022-12-08T16:33:21.237Z,20.63
2022-12-08T16:36:06.996Z,21.23
2022-12-08T16:38:52.973Z,22.75
2022-12-08T16:41:59.105Z,22.92
2022-12-08T16:44:44.766Z,22.80
2022-12-08T16:47:30.781Z,22.02
2022-12-08T16:50:18.460Z,22.13
2022-12-08T16:53:06.027Z,22.03
2022-12-08T16:55:51.842Z,23.88
2022-12-08T16:58:39.266Z,22.85
2022-12-08T17:01:25.253Z,22.58
2022-12-08T17:07:16.478Z,22.90
2022-12-08T17:10:06.390Z,22.63
2022-12-08T17:12:52.773Z,22.52
2022-12-08T17:15:40.449Z,21.30
2022-12-08T17:18:26.393Z,21.40
2022-12-08T17:21:12.391Z,22.27
2022-12-08T17:23:57.585Z,22.17
2022-12-08T17:26:43.601Z,21.85
2022-12-08T17:29:29.803Z,21.45
2022-12-08T17:32:18.243Z,21.67
2022-12-08T17:35:04.198Z,21.33
2022-12-08T17:37:50.359Z,20.38
2022-12-08T17:40:37.210Z,20.80
2022-12-08T17:43:24.850Z,21.00
2022-12-08T17:46:17.023Z,21.67
2022-12-08T17:49:08.725Z,21.77
2022-12-08T17:51:56.720Z,21.63
2022-12-08T17:54:42.353Z,21.25
2022-12-08T17:57:27.890Z,22.63
2022-12-08T18:00:14.369Z,21.20
2022-12-08T18:03:01.284Z,21.47
2022-12-08T18:05:49.850Z,21.33
2022-12-08T18:08:36.843Z,21.55
2022-12-08T18:11:22.712Z,21.83
2022-12-08T18:14:11.488Z,22.17
2022-12-08T18:16:57.567Z,21.45
2022-12-08T18:19:44.139Z,22.58
2022-12-08T18:22:44.465Z,22.35
2022-12-08T18:25:30.392Z,21.75
2022-12-08T18:28:16.272Z,21.85
2022-12-08T18:31:02.082Z,22.70
2022-12-08T18:33:48.572Z,21.38
2022-12-08T18:36:35.556Z,23.13
2022-12-08T18:39:26.149Z,23.23
2022-12-08T18:42:24.895Z,24.52
2022-12-08T18:45:11.761Z,25.00
2022-12-08T18:47:58.502Z,24.73
2022-12-08T18:50:45.165Z,26.67
2022-12-08T18:53:31.768Z,26.25
2022-12-08T18:56:27.451Z,24.27
2022-12-08T18:59:14.544Z,24.70
2022-12-08T19:02:02.711Z,25.73
2022-12-08T19:04:57.066Z,26.77
2022-12-08T19:07:45.882Z,26.80
2022-12-08T19:10:32.842Z,26.45
2022-12-08T19:13:20.354Z,27.63
2022-12-08T19:16:07.314Z,28.15
2022-12-08T19:18:53.832Z,26.77
2022-12-08T19:21:45.939Z,26.70
2022-12-08T19:24:34.864Z,26.77
2022-12-08T19:27:25.064Z,26.70
2022-12-08T19:30:14.368Z,27.60
2022-12-08T19:33:01.000Z,26.70
2022-12-08T19:35:52.710Z,24.83
2022-12-08T19:38:58.827Z,25.58
2022-12-08T19:42:04.871Z,25.42
2022-12-08T19:44:54.671Z,23.83
2022-12-08T19:47:53.450Z,25.42
2022-12-08T19:50:41.015Z,26.63
2022-12-08T19:53:29.103Z,26.00
2022-12-08T19:56:17.056Z,26.23
2022-12-08T19:59:04.568Z,25.52
2022-12-08T20:01:53.195Z,26.45
2022-12-08T20:04:40.846Z,26.95
2022-12-08T20:07:27.525Z,25.80
2022-12-08T20:10:18.347Z,27.95
2022-12-08T20:13:24.435Z,25.60
2022-12-08T20:16:20.991Z,25.42
2022-12-08T20:19:08.187Z,24.38
2022-12-08T20:21:58.187Z,25.30
2022-12-08T20:24:47.858Z,25.08
2022-12-08T20:27:36.427Z,24.73
2022-12-08T20:30:22.395Z,26.08
2022-12-08T20:33:09.081Z,26.30
2022-12-08T20:36:00.233Z,24.88
2022-12-08T20:38:49.128Z,25.47
2022-12-08T20:41:39.303Z,26.45
2022-12-08T20:44:29.975Z,24.35
2022-12-08T20:47:17.372Z,24.88
2022-12-08T20:50:05.631Z,22.95
2022-12-08T20:52:52.686Z,24.13
2022-12-08T20:55:43.410Z,23.38
2022-12-08T20:58:29.818Z,23.33
2022-12-08T21:01:19.939Z,23.48
2022-12-08T21:04:07.211Z,23.02
2022-12-08T21:06:53.077Z,23.05
2022-12-08T21:09:51.744Z,23.30
2022-12-08T21:12:39.345Z,23.00
2022-12-08T21:15:25.268Z,23.25
2022-12-08T21:18:11.217Z,23.35
2022-12-08T21:21:02.321Z,23.23
2022-12-08T21:23:48.453Z,21.85
2022-12-08T21:26:34.151Z,22.02
2022-12-08T21:29:21.386Z,21.67
2022-12-08T21:32:09.053Z,21.38
2022-12-08T21:34:54.900Z,20.03
2022-12-08T21:37:40.454Z,20.70
2022-12-08T21:40:27.091Z,19.92
2022-12-08T21:43:13.769Z,19.88
2022-12-08T21:46:00.951Z,20.40
2022-12-08T21:48:47.012Z,19.33
2022-12-08T21:51:35.149Z,19.98
2022-12-08T21:54:20.869Z,21.00
2022-12-08T21:57:06.566Z,19.73
2022-12-08T21:59:52.091Z,19.20
2022-12-08T22:02:39.435Z,19.02
2022-12-08T22:05:25.434Z,19.88
2022-12-08T22:08:11.647Z,19.08
2022-12-08T22:10:57.323Z,18.40
2022-12-08T22:13:43.118Z,19.20
2022-12-08T22:16:29.000Z,17.48
2022-12-08T22:19:16.352Z,17.23
2022-12-08T22:22:02.655Z,17.00
2022-12-08T22:24:48.271Z,17.05
2022-12-08T22:27:36.199Z,17.77
2022-12-08T22:30:22.152Z,16.67
2022-12-08T22:33:08.004Z,16.58
2022-12-08T22:36:01.306Z,17.48
2022-12-08T22:38:50.934Z,17.27
2022-12-08T22:41:36.535Z,16.20
2022-12-08T22:44:22.409Z,17.38
2022-12-08T22:47:08.392Z,16.40
2022-12-08T22:49:54.527Z,18.27
2022-12-08T22:52:41.680Z,16.85
2022-12-08T22:55:27.507Z,16.05
2022-12-08T22:58:13.501Z,18.10
2022-12-08T23:00:59.442Z,16.83
2022-12-08T23:03:45.553Z,17.00
2022-12-08T23:06:31.818Z,16.58
2022-12-08T23:09:18.906Z,18.17
2022-12-08T23:12:05.417Z,17.50
2022-12-08T23:14:51.183Z,16.17
2022-12-08T23:17:36.827Z,15.73
2022-12-08T23:20:22.535Z,16.52
2022-12-08T23:23:07.965Z,16.45
2022-12-08T23:25:55.018Z,16.30
2022-12-08T23:28:40.661Z,16.38
2022-12-08T23:31:26.660Z,16.85
2022-12-08T23:34:12.571Z,15.63
2022-12-08T23:36:58.548Z,15.77
2022-12-08T23:39:44.489Z,15.20
2022-12-08T23:42:31.764Z,15.77
2022-12-08T23:45:17.621Z,15.90
2022-12-08T23:48:03.627Z,15.40
2022-12-08T23:50:49.488Z,15.85
2022-12-08T23:53:34.990Z,14.60
2022-12-08T23:56:22.213Z,13.70
2022-12-08T23:59:11.580Z,14.60
